Terminal Aerodrome Forecast
Issued by NWS Cleveland, OH

Home | Current Version | Previous Version | Graphics & Text | Print | Product List | Glossary Off
Versions: 1 2 3 4 5 6 7 8 9 10 11 12 13 14 15 16 17 18 19 20 21

000
FTUS41 KCLE 281000 AAA
TAFYNG
TAF AMD
KYNG 281015Z 2810/2906 27004KT P6SM VCSH SCT007 BKN025
      TEMPO 2810/2814 32010KT 2SM SHRA BR OVC012
     FM281600 31015G22KT P6SM VCSH BKN025
     FM290000 35008KT P6SM BKN030=

USA.gov is the U.S. government's official web portal to all federal, state and local government web resources and services.